Napakiak, AK (99634)

5:51 PM AKDT on May 23, 2017 (GMT -0800)
Bethel | | Change Station

Elev 121 ft 60.78 °N, 161.84 °W | Updated 51 minutes ago

Rain
Rain
44 °F
Feels Like 35 °F
N
22
Wind Variable Wind from SSE
Gusts 28 mph

Today
High -- | Low -- °F
--% Chance of Precip.
Yesterday
High -- | Low -- °F
Precip. -- in
Pressure 29.82 in
Visibility 10.0 miles
Clouds Scattered Clouds 1900 ft
Mostly Cloudy 2300 ft
Overcast 4700 ft
Windchill 35 °F
Dew Point 40 °F
Humidity 85%
Rainfall 0.09 in
Snow Depth Not available.
5:45 AM 11:45 PM
Waning Crescent, 5% visible
SPECI PABE 240100Z 15019G24KT 10SM -RA SCT019 BKN023 OVC047 07/04 A2982 RMK AO2 P0000 T00670044 $
Pressure 29.82 in
Visibility 10.0 miles
Clouds Scattered Clouds 1900 ft
Mostly Cloudy 2300 ft
Overcast 4700 ft
Windchill 35 °F
Dew Point 40 °F
Humidity 85%
Rainfall 0.09 in
Snow Depth Not available.
5:45 AM 11:45 PM
Waning Crescent, 5% visible
SPECI PABE 240100Z 15019G24KT 10SM -RA SCT019 BKN023 OVC047 07/04 A2982 RMK AO2 P0000 T00670044 $

Get Severe Weather Alerts

Thanks for signing up!

Be on the lookout for a verification email in your inbox.

You'll start receiving the daily forecast at 6 AM.

×

10-Day Weather Forecast

Almanac

Astronomy

May. 23, 2017 Rise Set
Actual Time
Civil Twilight
Nautical Twilight
Astronomical Twilight
Moon
Length of Visible Light
Length of Day
Tomorrow will be .
, % of the Moon is Illuminated

Today's Extremes

State Highs State Lows

Community

WunderPhotos

Category 6

Welcome to Category 6. This is the collective home for Weather Underground's featured writeups by Dr. Jeff Masters (right), Bob Henson (left), Chris Burt, and other regular contributors.

Nearby

Air Quality

  Air Quality AQ Index Pollutant
Not available.

Snow Depth

Station Depth Elevation

Earthquake Activity

City Distance Mag. Time & Date
Minimum magnitude displayed is 2.5.

Coastal Water Temperatures

Place Temperature

Stations

Nearby Weather Stations

Station Location Temp. Windchill Dew Point Humidity Wind Precip. Elev Updated Type
                   

Watches & Warnings

There are currently no watches in effect.